createdAt,value
2019-05-07T00:01:38.115Z,6.44
2019-05-07T00:03:38.015Z,6.44
2019-05-07T00:05:38.101Z,6.44
2019-05-07T00:07:38.104Z,6.44
2019-05-07T00:09:38.095Z,6.38
2019-05-07T00:10:57.740Z,6.44
2019-05-07T00:11:38.079Z,6.38
2019-05-07T00:13:38.107Z,6.38
2019-05-07T00:15:38.170Z,6.38
2019-05-07T00:17:42.859Z,6.38
2019-05-07T00:19:38.114Z,6.38
2019-05-07T00:21:38.101Z,6.38
2019-05-07T00:23:38.102Z,6.31
2019-05-07T00:25:38.128Z,6.31
2019-05-07T00:25:54.950Z,6.31
2019-05-07T00:27:38.050Z,6.31
2019-05-07T00:29:38.087Z,6.31
2019-05-07T00:31:38.095Z,6.31
2019-05-07T00:33:38.091Z,6.31
2019-05-07T00:35:38.120Z,6.31
2019-05-07T00:37:38.227Z,6.31
2019-05-07T00:39:38.109Z,6.31
2019-05-07T00:40:55.077Z,6.31
2019-05-07T00:41:38.105Z,6.31
2019-05-07T00:43:38.104Z,6.31
2019-05-07T00:45:38.109Z,6.31
2019-05-07T00:47:38.153Z,6.31
2019-05-07T00:49:38.117Z,6.25
2019-05-07T00:51:38.118Z,6.25
2019-05-07T00:53:38.118Z,6.25
2019-05-07T00:55:38.052Z,6.25
2019-05-07T00:55:55.009Z,6.25
2019-05-07T00:57:38.049Z,6.19
2019-05-07T00:59:38.081Z,6.19
2019-05-07T01:01:38.088Z,6.19
2019-05-07T01:03:38.097Z,6.19
2019-05-07T01:05:38.106Z,6.19
2019-05-07T01:07:38.166Z,6.19
2019-05-07T01:09:38.097Z,6.19
2019-05-07T01:10:55.070Z,6.19
2019-05-07T01:11:38.096Z,6.19
2019-05-07T01:13:38.102Z,6.19
2019-05-07T01:15:38.060Z,6.19
2019-05-07T01:17:38.083Z,6.19
2019-05-07T01:19:38.040Z,6.19
2019-05-07T01:21:38.200Z,6.19
2019-05-07T01:23:38.057Z,6.13
2019-05-07T01:25:38.986Z,6.19
2019-05-07T01:25:55.023Z,6.19
2019-05-07T01:27:38.186Z,6.13
2019-05-07T01:29:38.090Z,6.13
2019-05-07T01:31:38.104Z,6.13
2019-05-07T01:33:38.113Z,6.06
2019-05-07T01:35:39.024Z,6.06
2019-05-07T01:37:38.046Z,6.06
2019-05-07T01:39:38.085Z,6.06
2019-05-07T01:40:55.022Z,6.06
2019-05-07T01:41:38.108Z,6.06
2019-05-07T01:43:38.057Z,6.06
2019-05-07T01:45:46.207Z,6.06
2019-05-07T01:47:38.166Z,6.06
2019-05-07T01:49:38.102Z,6.06
2019-05-07T01:51:38.099Z,6.06
2019-05-07T01:53:38.119Z,6.06
2019-05-07T01:55:39.644Z,6.06
2019-05-07T01:55:55.755Z,6.06
2019-05-07T01:57:38.191Z,6.06
2019-05-07T01:59:38.098Z,6.06
2019-05-07T02:01:38.116Z,6.06
2019-05-07T02:03:38.143Z,6.06
2019-05-07T02:05:38.125Z,6.06
2019-05-07T02:07:38.095Z,6.06
2019-05-07T02:09:38.178Z,6
2019-05-07T02:10:55.080Z,6
2019-05-07T02:11:38.097Z,6.06
2019-05-07T02:13:38.175Z,6.06
2019-05-07T02:15:38.092Z,6
2019-05-07T02:17:38.229Z,6
2019-05-07T02:19:38.099Z,6
2019-05-07T02:21:38.135Z,5.94
2019-05-07T02:23:38.126Z,6
2019-05-07T02:25:38.114Z,6
2019-05-07T02:25:55.000Z,6
2019-05-07T02:27:38.109Z,5.94
2019-05-07T02:29:38.299Z,5.94
2019-05-07T02:31:38.107Z,5.94
2019-05-07T02:33:39.017Z,5.94
2019-05-07T02:35:38.103Z,5.94
2019-05-07T02:37:46.812Z,5.94
2019-05-07T02:39:38.122Z,5.94
2019-05-07T02:40:55.058Z,5.88
2019-05-07T02:41:38.117Z,5.88
2019-05-07T02:43:38.212Z,5.88
2019-05-07T02:45:38.190Z,5.88
2019-05-07T02:47:38.105Z,5.81
2019-05-07T02:49:38.092Z,5.75
2019-05-07T02:51:38.114Z,5.75
2019-05-07T02:53:38.077Z,5.69
2019-05-07T02:55:38.159Z,5.69
2019-05-07T02:55:55.036Z,5.69
2019-05-07T02:57:38.093Z,5.63
2019-05-07T02:59:38.128Z,5.63
2019-05-07T03:01:38.112Z,5.56
2019-05-07T03:03:38.197Z,5.56
2019-05-07T03:05:38.123Z,5.56
2019-05-07T03:07:38.111Z,5.56
2019-05-07T03:09:38.086Z,5.5
2019-05-07T03:10:55.194Z,5.5
2019-05-07T03:11:38.073Z,5.44
2019-05-07T03:13:38.102Z,5.38
2019-05-07T03:15:38.101Z,5.38
2019-05-07T03:17:38.095Z,5.38
2019-05-07T03:19:38.054Z,5.31
2019-05-07T03:21:38.102Z,5.31
2019-05-07T03:23:38.118Z,5.25
2019-05-07T03:25:38.077Z,5.25
2019-05-07T03:25:55.034Z,5.25
2019-05-07T03:27:38.134Z,5.19
2019-05-07T03:29:38.105Z,5.19
2019-05-07T03:31:38.191Z,5.13
2019-05-07T03:33:38.003Z,5.13
2019-05-07T03:35:38.339Z,5.13
2019-05-07T03:37:38.962Z,5.13
2019-05-07T03:39:38.081Z,5.13
2019-05-07T03:40:55.054Z,5.13
2019-05-07T03:41:38.097Z,5.13
2019-05-07T03:43:38.104Z,5.13
2019-05-07T03:45:38.045Z,5.13
2019-05-07T03:47:38.099Z,5.13
2019-05-07T03:49:38.146Z,5.13
2019-05-07T03:51:38.110Z,5.13
2019-05-07T03:53:39.519Z,5.13
2019-05-07T03:55:39.149Z,5.13
2019-05-07T03:55:56.046Z,5.13
2019-05-07T03:57:38.095Z,5.13
2019-05-07T03:59:38.098Z,5.13
2019-05-07T04:01:38.112Z,5.19
2019-05-07T04:03:38.092Z,5.19
2019-05-07T04:05:38.145Z,5.19
2019-05-07T04:07:38.062Z,5.19
2019-05-07T04:09:38.111Z,5.25
2019-05-07T04:10:55.082Z,5.19
2019-05-07T04:11:38.107Z,5.19
2019-05-07T04:13:38.101Z,5.19
2019-05-07T04:15:38.242Z,5.25
2019-05-07T04:17:38.081Z,5.25
2019-05-07T04:19:38.106Z,5.25
2019-05-07T04:21:38.100Z,5.25
2019-05-07T04:23:38.209Z,5.25
2019-05-07T04:25:38.059Z,5.31
2019-05-07T04:25:55.038Z,5.31
2019-05-07T04:27:38.152Z,5.31
2019-05-07T04:29:38.110Z,5.31
2019-05-07T04:31:38.155Z,5.31
2019-05-07T04:33:38.103Z,5.38
2019-05-07T04:35:38.176Z,5.38
2019-05-07T04:37:38.105Z,5.38
2019-05-07T04:39:38.175Z,5.44
2019-05-07T04:40:55.003Z,5.5
2019-05-07T04:41:38.129Z,5.5
2019-05-07T04:43:38.104Z,5.56
2019-05-07T04:45:38.097Z,5.63
2019-05-07T04:47:43.846Z,5.69
2019-05-07T04:49:38.120Z,5.75
2019-05-07T04:51:38.070Z,5.75
2019-05-07T04:53:38.106Z,5.81
2019-05-07T04:55:38.085Z,5.88
2019-05-07T04:55:55.911Z,5.88
2019-05-07T04:57:38.091Z,5.88
2019-05-07T04:59:38.109Z,5.94
2019-05-07T05:01:38.471Z,5.94
2019-05-07T05:03:39.227Z,5.94
2019-05-07T05:05:38.029Z,5.94
2019-05-07T05:07:38.055Z,5.94
2019-05-07T05:09:38.055Z,5.94
2019-05-07T05:10:55.093Z,6
2019-05-07T05:11:38.103Z,6
2019-05-07T05:13:38.108Z,6
2019-05-07T05:15:38.120Z,6
2019-05-07T05:17:47.889Z,6
2019-05-07T05:19:38.115Z,6.06
2019-05-07T05:21:38.096Z,6.13
2019-05-07T05:23:38.094Z,6.13
2019-05-07T05:25:38.167Z,6.19
2019-05-07T05:25:55.044Z,6.19
2019-05-07T05:27:38.107Z,6.25
2019-05-07T05:29:38.192Z,6.25
2019-05-07T05:31:38.114Z,6.19
2019-05-07T05:33:38.151Z,6.19
2019-05-07T05:35:38.101Z,6.19
2019-05-07T05:37:38.108Z,6.19
2019-05-07T05:39:38.032Z,6.19
2019-05-07T05:40:55.027Z,6.19
2019-05-07T05:41:38.121Z,6.19
2019-05-07T05:43:38.175Z,6.13
2019-05-07T05:45:38.089Z,6.25
2019-05-07T05:47:38.089Z,6.25
2019-05-07T05:49:38.112Z,6.31
2019-05-07T05:51:38.123Z,6.25
2019-05-07T05:53:38.114Z,6.38
2019-05-07T05:55:38.131Z,6.44
2019-05-07T05:55:54.977Z,6.44
2019-05-07T05:57:38.109Z,6.5
2019-05-07T05:59:48.690Z,6.56
2019-05-07T06:01:38.021Z,6.56
2019-05-07T06:03:38.107Z,6.63
2019-05-07T06:05:38.082Z,6.69
2019-05-07T06:07:38.109Z,6.69
2019-05-07T06:09:38.096Z,6.81
2019-05-07T06:10:55.061Z,6.81
2019-05-07T06:11:38.099Z,6.88
2019-05-07T06:13:38.089Z,6.94
2019-05-07T06:15:38.204Z,6.94
2019-05-07T06:17:38.115Z,7
2019-05-07T06:19:38.086Z,7.06
2019-05-07T06:21:38.131Z,7.06
2019-05-07T06:23:39.017Z,7.13
2019-05-07T06:25:38.102Z,7.19
2019-05-07T06:25:55.037Z,7.19
2019-05-07T06:27:38.105Z,7.25
2019-05-07T06:29:38.977Z,7.31
2019-05-07T06:31:38.127Z,7.31
2019-05-07T06:33:38.052Z,7.31
2019-05-07T06:35:38.112Z,7.31
2019-05-07T06:37:38.129Z,7.31
2019-05-07T06:39:38.038Z,7.31
2019-05-07T06:40:55.062Z,7.31
2019-05-07T06:41:38.110Z,7.31
2019-05-07T06:43:38.108Z,7.38
2019-05-07T06:45:38.992Z,7.5
2019-05-07T06:47:38.115Z,7.63
2019-05-07T06:49:38.083Z,7.63
2019-05-07T06:51:38.120Z,7.69
2019-05-07T06:53:38.098Z,7.75
2019-05-07T06:55:38.980Z,7.81
2019-05-07T06:55:55.200Z,7.81
2019-05-07T06:57:38.077Z,7.75
2019-05-07T06:59:38.103Z,7.75
2019-05-07T07:01:38.115Z,7.75
2019-05-07T07:03:38.119Z,7.88
2019-05-07T07:05:38.102Z,7.88
2019-05-07T07:07:38.104Z,7.88
2019-05-07T07:09:38.082Z,7.88
2019-05-07T07:10:55.072Z,7.94
2019-05-07T07:11:38.143Z,8
2019-05-07T07:13:38.112Z,8
2019-05-07T07:15:38.094Z,8.13
2019-05-07T07:17:38.050Z,8.06
2019-05-07T07:19:38.102Z,8.19
2019-05-07T07:21:38.107Z,8.31
2019-05-07T07:23:38.100Z,8.38
2019-05-07T07:25:38.138Z,8.38
2019-05-07T07:25:55.098Z,8.38
2019-05-07T07:27:38.975Z,8.44
2019-05-07T07:29:38.102Z,8.5
2019-05-07T07:31:38.125Z,8.63
2019-05-07T07:33:38.124Z,8.75
2019-05-07T07:35:38.113Z,8.63
2019-05-07T07:37:38.103Z,8.69
2019-05-07T07:39:38.109Z,8.75
2019-05-07T07:40:55.068Z,8.75
2019-05-07T07:41:38.094Z,8.88
2019-05-07T07:43:38.128Z,8.94
2019-05-07T07:45:38.099Z,8.94
2019-05-07T07:47:38.120Z,9
2019-05-07T07:49:38.101Z,9.13
2019-05-07T07:51:41.677Z,9
2019-05-07T07:53:38.091Z,9.06
2019-05-07T07:55:38.097Z,9.13
2019-05-07T07:55:55.048Z,9.13
2019-05-07T07:57:38.084Z,9.19
2019-05-07T07:59:38.089Z,9.25
2019-05-07T08:01:38.099Z,9.19
2019-05-07T08:03:38.963Z,9.13
2019-05-07T08:05:38.050Z,9.25
2019-05-07T08:07:38.139Z,9.19
2019-05-07T08:09:38.105Z,9.25
2019-05-07T08:10:55.055Z,9.25
2019-05-07T08:11:38.072Z,9.25
2019-05-07T08:13:38.118Z,9.25
2019-05-07T08:15:38.091Z,9.25
2019-05-07T08:17:38.103Z,9.44
2019-05-07T08:19:38.103Z,9.38
2019-05-07T08:21:38.128Z,9.31
2019-05-07T08:23:38.088Z,9.44
2019-05-07T08:25:38.083Z,9.44
2019-05-07T08:25:55.030Z,9.44
2019-05-07T08:27:38.126Z,9.56
2019-05-07T08:29:38.195Z,9.63
2019-05-07T08:31:38.109Z,9.63
2019-05-07T08:33:38.142Z,9.75
2019-05-07T08:35:39.009Z,9.69
2019-05-07T08:37:38.137Z,9.56
2019-05-07T08:39:38.158Z,9.56
2019-05-07T08:40:54.928Z,9.69
2019-05-07T08:41:38.223Z,9.75
2019-05-07T08:43:38.166Z,10
2019-05-07T08:45:38.157Z,9.94
2019-05-07T08:47:38.108Z,9.69
2019-05-07T08:49:40.015Z,9.88
2019-05-07T08:51:38.100Z,10.06
2019-05-07T08:53:38.119Z,10.13
2019-05-07T08:55:38.107Z,10.06
2019-05-07T08:55:55.016Z,10.13
2019-05-07T08:57:38.098Z,10.25
2019-05-07T08:59:38.127Z,10.31
2019-05-07T09:01:38.064Z,10.13
2019-05-07T09:03:38.113Z,10
2019-05-07T09:05:38.100Z,10.13
2019-05-07T09:07:38.081Z,10.13
2019-05-07T09:09:38.061Z,10.13
2019-05-07T09:10:55.063Z,10.19
2019-05-07T09:11:38.108Z,10.19
2019-05-07T09:13:38.108Z,10.31
2019-05-07T09:15:38.099Z,10.63
2019-05-07T09:17:38.052Z,10.56
2019-05-07T09:19:48.124Z,10.63
2019-05-07T09:21:38.092Z,10.75
2019-05-07T09:23:38.125Z,10.75
2019-05-07T09:25:38.068Z,10.81
2019-05-07T09:25:55.022Z,10.81
2019-05-07T09:27:38.113Z,10.81
2019-05-07T09:29:38.107Z,10.81
2019-05-07T09:31:38.111Z,10.69
2019-05-07T09:33:38.093Z,10.38
2019-05-07T09:35:39.723Z,10.81
2019-05-07T09:37:38.099Z,11.13
2019-05-07T09:39:38.081Z,11.19
2019-05-07T09:40:56.949Z,11.19
2019-05-07T09:41:38.115Z,11.44
2019-05-07T09:43:38.187Z,11.5
2019-05-07T09:45:38.111Z,11.06
2019-05-07T09:47:38.100Z,10.81
2019-05-07T09:49:38.102Z,10.94
2019-05-07T09:51:38.088Z,11.06
2019-05-07T09:53:38.101Z,11.25
2019-05-07T09:55:38.982Z,11.25
2019-05-07T09:55:54.970Z,11.25
2019-05-07T09:57:38.090Z,11.38
2019-05-07T09:59:38.086Z,11
2019-05-07T10:01:38.101Z,10.88
2019-05-07T10:03:38.121Z,11.13
2019-05-07T10:05:38.136Z,11.13
2019-05-07T10:07:38.099Z,11
2019-05-07T10:09:38.115Z,11.44
2019-05-07T10:10:55.034Z,11.5
2019-05-07T10:11:38.125Z,11.75
2019-05-07T10:13:38.102Z,12.06
2019-05-07T10:15:38.060Z,12.44
2019-05-07T10:17:38.102Z,12.19
2019-05-07T10:19:38.893Z,12.19
2019-05-07T10:21:38.105Z,12.44
2019-05-07T10:23:38.083Z,12.56
2019-05-07T10:25:38.056Z,12.13
2019-05-07T10:25:55.026Z,12.06
2019-05-07T10:27:38.112Z,12.31
2019-05-07T10:29:38.105Z,12.25
2019-05-07T10:31:38.119Z,12.25
2019-05-07T10:33:38.066Z,12.44
2019-05-07T10:35:38.103Z,12.44
2019-05-07T10:37:38.105Z,12.25
2019-05-07T10:39:38.122Z,11.88
2019-05-07T10:40:55.053Z,11.94
2019-05-07T10:41:38.042Z,11.88
2019-05-07T10:43:39.013Z,12
2019-05-07T10:45:38.091Z,11.94
2019-05-07T10:47:38.259Z,12
2019-05-07T10:49:38.089Z,11.88
2019-05-07T10:51:38.090Z,11.75
2019-05-07T10:53:38.103Z,11.69
2019-05-07T10:55:38.109Z,11.81
2019-05-07T10:55:54.988Z,11.81
2019-05-07T10:57:38.103Z,11.63
2019-05-07T10:59:38.124Z,11.38
2019-05-07T11:01:38.097Z,11.38
2019-05-07T11:03:38.110Z,11.31
2019-05-07T11:05:38.114Z,11.38
2019-05-07T11:07:38.174Z,11.5
2019-05-07T11:09:38.050Z,11.44
2019-05-07T11:10:55.150Z,11.56
2019-05-07T11:11:38.219Z,11.38
2019-05-07T11:13:38.097Z,11.19
2019-05-07T11:15:38.112Z,11.56
2019-05-07T11:17:38.106Z,11.63
2019-05-07T11:19:38.116Z,11.56
2019-05-07T11:21:38.194Z,11.31
2019-05-07T11:23:38.123Z,11.5
2019-05-07T11:25:38.099Z,11.63
2019-05-07T11:25:55.033Z,11.63
2019-05-07T11:27:38.081Z,11.44
2019-05-07T11:29:38.101Z,11.5
2019-05-07T11:31:38.991Z,11.5
2019-05-07T11:33:38.108Z,11.56
2019-05-07T11:35:38.079Z,11.31
2019-05-07T11:37:38.176Z,11.38
2019-05-07T11:39:38.193Z,11.44
2019-05-07T11:40:55.005Z,11.31
2019-05-07T11:41:38.115Z,11.38
2019-05-07T11:43:38.103Z,11.5
2019-05-07T11:45:38.979Z,11.5
2019-05-07T11:47:38.042Z,11.63
2019-05-07T11:49:38.057Z,11.81
2019-05-07T11:51:38.020Z,11.75
2019-05-07T11:53:38.121Z,11.88
2019-05-07T11:55:38.110Z,11.56
2019-05-07T11:55:54.951Z,11.56
2019-05-07T11:57:38.119Z,11.69
2019-05-07T11:59:38.987Z,11.69
2019-05-07T12:01:44.435Z,11.75
2019-05-07T12:03:38.116Z,11.56
2019-05-07T12:05:38.119Z,11.63
2019-05-07T12:07:38.108Z,11.75
2019-05-07T12:09:38.146Z,12.19
2019-05-07T12:10:55.054Z,12.44
2019-05-07T12:11:38.049Z,12.5
2019-05-07T12:13:38.052Z,12.69
2019-05-07T12:15:38.096Z,12.63
2019-05-07T12:17:38.056Z,12.75
2019-05-07T12:19:38.118Z,12.88
2019-05-07T12:21:38.955Z,12.81
2019-05-07T12:23:38.099Z,12.63
2019-05-07T12:25:38.065Z,12.75
2019-05-07T12:25:55.034Z,12.75
2019-05-07T12:27:38.130Z,13
2019-05-07T12:29:38.109Z,13.31
2019-05-07T12:31:38.057Z,13.63
2019-05-07T12:33:38.108Z,13.38
2019-05-07T12:35:38.204Z,13.38
2019-05-07T12:37:38.068Z,13.13
2019-05-07T12:39:38.172Z,13.25
2019-05-07T12:40:55.054Z,13.06
2019-05-07T12:41:38.092Z,13.19
2019-05-07T12:43:38.119Z,13.13
2019-05-07T12:45:38.046Z,13.25
2019-05-07T12:47:38.089Z,13
2019-05-07T12:49:38.090Z,12.69
2019-05-07T12:51:38.161Z,12.81
2019-05-07T12:53:38.106Z,12.81
2019-05-07T12:55:38.230Z,12.69
2019-05-07T12:55:55.032Z,12.69
2019-05-07T12:57:38.096Z,13.13
2019-05-07T12:59:38.145Z,13.38
2019-05-07T13:01:38.109Z,13.44
2019-05-07T13:03:38.122Z,13.75
2019-05-07T13:05:38.104Z,13.88
2019-05-07T13:07:38.124Z,13.88
2019-05-07T13:09:38.090Z,13.88
2019-05-07T13:10:55.067Z,13.81
2019-05-07T13:11:38.202Z,13.75
2019-05-07T13:13:38.101Z,13.94
2019-05-07T13:15:38.123Z,13.69
2019-05-07T13:17:38.103Z,13.81
2019-05-07T13:19:39.194Z,13.81
2019-05-07T13:21:47.305Z,13.94
2019-05-07T13:23:38.103Z,14
2019-05-07T13:25:38.045Z,13.88
2019-05-07T13:25:55.002Z,13.88
2019-05-07T13:27:40.086Z,14
2019-05-07T13:29:38.114Z,13.63
2019-05-07T13:31:38.183Z,13.5
2019-05-07T13:33:38.082Z,13.44
2019-05-07T13:35:38.083Z,13.81
2019-05-07T13:37:38.103Z,14
2019-05-07T13:39:38.104Z,13.94
2019-05-07T13:40:55.132Z,13.94
2019-05-07T13:41:38.124Z,13.81
2019-05-07T13:43:38.108Z,13.75
2019-05-07T13:45:38.109Z,13.56
2019-05-07T13:47:38.076Z,13.19
2019-05-07T13:49:39.012Z,13.63
2019-05-07T13:51:38.091Z,13.69
2019-05-07T13:53:38.085Z,13.75
2019-05-07T13:55:38.080Z,14.06
2019-05-07T13:55:55.003Z,14.13
2019-05-07T13:57:38.103Z,14.38
2019-05-07T13:59:38.097Z,14.06
2019-05-07T14:01:38.050Z,13.94
2019-05-07T14:03:38.096Z,13.75
2019-05-07T14:05:38.989Z,13.38
2019-05-07T14:07:38.104Z,13.31
2019-05-07T14:09:38.110Z,13.19
2019-05-07T14:10:55.088Z,13.19
2019-05-07T14:11:38.100Z,13.19
2019-05-07T14:13:38.099Z,13.19
2019-05-07T14:15:38.058Z,13.5
2019-05-07T14:17:38.117Z,13.31
2019-05-07T14:19:38.150Z,13.25
2019-05-07T14:21:38.987Z,13.25
2019-05-07T14:23:38.107Z,13.38
2019-05-07T14:25:38.095Z,13.69
2019-05-07T14:25:55.889Z,13.81
2019-05-07T14:27:38.116Z,14.25
2019-05-07T14:29:38.096Z,14.38
2019-05-07T14:31:38.114Z,14.38
2019-05-07T14:33:38.108Z,14.25
2019-05-07T14:35:38.146Z,15.06
2019-05-07T14:37:38.059Z,15.44
2019-05-07T14:39:38.095Z,16
2019-05-07T14:40:55.098Z,16.25
2019-05-07T14:41:38.113Z,16.13
2019-05-07T14:43:38.075Z,15.75
2019-05-07T14:45:38.083Z,15.69
2019-05-07T14:47:38.127Z,15.81
2019-05-07T14:49:38.105Z,16.44
2019-05-07T14:51:38.119Z,16.75
2019-05-07T14:53:38.103Z,17.31
2019-05-07T14:55:38.125Z,17.19
2019-05-07T14:55:55.022Z,17.19
2019-05-07T14:57:38.104Z,16.75
2019-05-07T14:59:38.058Z,16.88
2019-05-07T15:01:38.113Z,16.94
2019-05-07T15:03:38.113Z,17
2019-05-07T15:05:38.130Z,17
2019-05-07T15:07:38.100Z,16.63
2019-05-07T15:09:38.149Z,16.75
2019-05-07T15:10:55.062Z,16.75
2019-05-07T15:11:38.098Z,16.69
2019-05-07T15:13:38.167Z,16.06
2019-05-07T15:15:38.110Z,15.81
2019-05-07T15:17:38.166Z,15.38
2019-05-07T15:19:38.047Z,15
2019-05-07T15:21:38.105Z,15.06
2019-05-07T15:23:38.140Z,15.56
2019-05-07T15:25:38.109Z,15.88
2019-05-07T15:25:55.020Z,16
2019-05-07T15:27:38.060Z,15.63
2019-05-07T15:29:38.072Z,15.06
2019-05-07T15:31:38.098Z,15.06
2019-05-07T15:33:38.102Z,15
2019-05-07T15:35:38.143Z,14.69
2019-05-07T15:37:38.097Z,14.75
2019-05-07T15:39:39.078Z,14.75
2019-05-07T15:40:55.062Z,14.75
2019-05-07T15:41:38.123Z,14.5
2019-05-07T15:43:38.120Z,14.56
2019-05-07T15:45:38.116Z,14.88
2019-05-07T15:47:38.110Z,14.38
2019-05-07T15:49:38.138Z,14.44
2019-05-07T15:51:38.095Z,14.69
2019-05-07T15:53:38.107Z,15
2019-05-07T15:55:38.068Z,15.69
2019-05-07T15:55:54.944Z,15.81
2019-05-07T15:57:38.645Z,16.06
2019-05-07T15:59:38.092Z,16.88
2019-05-07T16:01:38.127Z,16.88
2019-05-07T16:03:38.098Z,17.25
2019-05-07T16:05:38.115Z,17.19
2019-05-07T16:07:38.096Z,16.63
2019-05-07T16:09:38.093Z,16.5
2019-05-07T16:10:55.059Z,16.44
2019-05-07T16:11:38.053Z,16.31
2019-05-07T16:13:38.111Z,16.13
2019-05-07T16:15:38.124Z,16
2019-05-07T16:17:38.971Z,16.06
2019-05-07T16:19:38.108Z,16.44
2019-05-07T16:21:38.099Z,16.5
2019-05-07T16:23:38.114Z,16.69
2019-05-07T16:25:38.102Z,16.63
2019-05-07T16:25:55.045Z,16.56
2019-05-07T16:27:38.114Z,16.44
2019-05-07T16:29:38.126Z,16.19
2019-05-07T16:31:38.094Z,16.06
2019-05-07T16:33:38.104Z,15.94
2019-05-07T16:35:38.106Z,15.75
2019-05-07T16:37:38.122Z,15.56
2019-05-07T16:39:38.100Z,15.88
2019-05-07T16:40:55.095Z,16.06
2019-05-07T16:41:38.107Z,16
2019-05-07T16:43:38.109Z,15.81
2019-05-07T16:45:38.087Z,15.63
2019-05-07T16:47:38.113Z,15.06
2019-05-07T16:49:38.093Z,14.81
2019-05-07T16:51:38.125Z,14.63
2019-05-07T16:53:38.105Z,14.5
2019-05-07T16:55:38.097Z,14.5
2019-05-07T16:55:55.900Z,14.5
2019-05-07T16:57:38.062Z,14.5
2019-05-07T16:59:38.090Z,14.38
2019-05-07T17:01:38.956Z,14.38
2019-05-07T17:03:38.079Z,14.69
2019-05-07T17:05:38.140Z,14.94
2019-05-07T17:07:38.094Z,15
2019-05-07T17:09:38.106Z,15.19
2019-05-07T17:10:55.076Z,15.31
2019-05-07T17:11:38.109Z,15.19
2019-05-07T17:13:38.101Z,15.06
2019-05-07T17:15:38.091Z,15
2019-05-07T17:17:38.093Z,14.94
2019-05-07T17:19:38.113Z,14.88
2019-05-07T17:21:38.103Z,15.13
2019-05-07T17:23:43.914Z,15.31
2019-05-07T17:25:38.105Z,15.13
2019-05-07T17:25:55.047Z,15.19
2019-05-07T17:27:38.083Z,15.25
2019-05-07T17:29:38.100Z,15
2019-05-07T17:31:38.209Z,14.88
2019-05-07T17:33:38.157Z,14.75
2019-05-07T17:35:38.089Z,14.88
2019-05-07T17:37:38.063Z,14.94
2019-05-07T17:39:38.178Z,14.75
2019-05-07T17:40:55.066Z,14.81
2019-05-07T17:41:38.099Z,14.69
2019-05-07T17:43:38.051Z,14.56
2019-05-07T17:45:38.096Z,14.38
2019-05-07T17:47:38.172Z,14.38
2019-05-07T17:49:38.063Z,14.31
2019-05-07T17:51:38.093Z,14.25
2019-05-07T17:53:38.143Z,14.25
2019-05-07T17:55:38.084Z,13.81
2019-05-07T17:55:55.031Z,13.81
2019-05-07T17:57:38.043Z,13.75
2019-05-07T17:59:38.094Z,13.81
2019-05-07T18:01:38.108Z,13.75
2019-05-07T18:03:38.096Z,13.63
2019-05-07T18:05:38.105Z,13.69
2019-05-07T18:07:38.119Z,13.69
2019-05-07T18:09:38.108Z,13.63
2019-05-07T18:10:55.068Z,13.63
2019-05-07T18:11:38.048Z,13.63
2019-05-07T18:13:38.047Z,13.56
2019-05-07T18:15:38.103Z,13.5
2019-05-07T18:17:38.026Z,13.44
2019-05-07T18:19:38.085Z,13.38
2019-05-07T18:21:38.105Z,13.25
2019-05-07T18:23:38.107Z,13.31
2019-05-07T18:25:38.072Z,13.13
2019-05-07T18:25:55.007Z,13.19
2019-05-07T18:27:38.985Z,13.13
2019-05-07T18:29:38.107Z,13.13
2019-05-07T18:31:38.106Z,13
2019-05-07T18:33:38.012Z,12.94
2019-05-07T18:35:38.100Z,12.81
2019-05-07T18:37:38.049Z,12.81
2019-05-07T18:39:38.189Z,12.81
2019-05-07T18:40:55.064Z,12.81
2019-05-07T18:41:38.101Z,12.75
2019-05-07T18:43:38.168Z,12.56
2019-05-07T18:45:38.111Z,12.5
2019-05-07T18:47:38.097Z,12.44
2019-05-07T18:49:38.085Z,12.5
2019-05-07T18:51:38.088Z,12.5
2019-05-07T18:53:38.030Z,12.5
2019-05-07T18:55:38.104Z,12.38
2019-05-07T18:55:55.056Z,12.38
2019-05-07T18:57:38.050Z,12.44
2019-05-07T18:59:38.085Z,12.44
2019-05-07T19:01:38.106Z,12.31
2019-05-07T19:03:38.155Z,12.25
2019-05-07T19:05:38.096Z,12.19
2019-05-07T19:07:38.096Z,12.13
2019-05-07T19:09:38.083Z,12.06
2019-05-07T19:10:55.061Z,12.06
2019-05-07T19:11:38.985Z,12
2019-05-07T19:13:38.104Z,12
2019-05-07T19:15:38.091Z,12
2019-05-07T19:17:38.046Z,11.88
2019-05-07T19:19:38.101Z,11.75
2019-05-07T19:21:38.109Z,11.75
2019-05-07T19:23:38.105Z,11.75
2019-05-07T19:25:38.117Z,11.75
2019-05-07T19:25:55.017Z,11.75
2019-05-07T19:27:38.989Z,11.69
2019-05-07T19:29:38.094Z,11.69
2019-05-07T19:31:38.139Z,11.63
2019-05-07T19:33:38.100Z,11.63
2019-05-07T19:35:38.042Z,11.56
2019-05-07T19:37:38.068Z,11.56
2019-05-07T19:39:38.107Z,11.63
2019-05-07T19:40:55.014Z,11.56
2019-05-07T19:41:38.131Z,11.56
2019-05-07T19:43:38.987Z,11.5
2019-05-07T19:45:38.105Z,11.38
2019-05-07T19:47:38.120Z,11.44
2019-05-07T19:49:38.102Z,11.44
2019-05-07T19:51:38.098Z,11.44
2019-05-07T19:53:38.092Z,11.38
2019-05-07T19:55:38.095Z,11.31
2019-05-07T19:55:55.024Z,11.31
2019-05-07T19:57:38.106Z,11.38
2019-05-07T19:59:38.977Z,11.31
2019-05-07T20:01:38.111Z,11.13
2019-05-07T20:03:38.098Z,11.13
2019-05-07T20:05:38.166Z,11.13
2019-05-07T20:07:38.107Z,11.13
2019-05-07T20:09:38.118Z,11
2019-05-07T20:10:55.055Z,11
2019-05-07T20:11:38.113Z,11.06
2019-05-07T20:13:40.611Z,11
2019-05-07T20:15:38.114Z,10.94
2019-05-07T20:17:39.011Z,10.94
2019-05-07T20:19:38.108Z,10.88
2019-05-07T20:21:38.118Z,10.81
2019-05-07T20:23:38.131Z,10.81
2019-05-07T20:25:38.053Z,10.88
2019-05-07T20:25:55.072Z,10.88
2019-05-07T20:27:39.066Z,10.81
2019-05-07T20:29:38.040Z,10.81
2019-05-07T20:31:38.060Z,10.81
2019-05-07T20:33:38.105Z,10.75
2019-05-07T20:35:40.806Z,10.69
2019-05-07T20:37:38.102Z,10.69
2019-05-07T20:39:38.143Z,10.56
2019-05-07T20:40:55.018Z,10.56
2019-05-07T20:41:38.121Z,10.56
2019-05-07T20:43:38.295Z,10.5
2019-05-07T20:45:38.110Z,10.5
2019-05-07T20:47:38.099Z,10.44
2019-05-07T20:49:38.114Z,10.38
2019-05-07T20:51:38.055Z,10.44
2019-05-07T20:53:38.102Z,10.44
2019-05-07T20:55:38.150Z,10.38
2019-05-07T20:55:55.069Z,10.38
2019-05-07T20:57:38.089Z,10.38
2019-05-07T20:59:38.073Z,10.38
2019-05-07T21:01:38.119Z,10.31
2019-05-07T21:03:38.093Z,10.31
2019-05-07T21:05:38.116Z,10.31
2019-05-07T21:07:38.113Z,10.31
2019-05-07T21:09:38.111Z,10.25
2019-05-07T21:10:55.052Z,10.25
2019-05-07T21:11:38.102Z,10.19
2019-05-07T21:13:38.111Z,10.19
2019-05-07T21:15:38.107Z,10.13
2019-05-07T21:17:38.106Z,10.06
2019-05-07T21:19:38.109Z,10.06
2019-05-07T21:21:38.972Z,10
2019-05-07T21:23:38.091Z,9.94
2019-05-07T21:25:43.367Z,9.94
2019-05-07T21:25:54.980Z,9.94
2019-05-07T21:27:38.092Z,9.94
2019-05-07T21:29:38.096Z,9.88
2019-05-07T21:31:38.091Z,9.88
2019-05-07T21:33:38.102Z,9.88
2019-05-07T21:35:38.045Z,9.88
2019-05-07T21:37:38.130Z,9.75
2019-05-07T21:39:38.108Z,9.88
2019-05-07T21:40:55.019Z,9.88
2019-05-07T21:41:38.102Z,9.88
2019-05-07T21:43:38.061Z,9.88
2019-05-07T21:45:38.104Z,9.94
2019-05-07T21:47:38.101Z,9.94
2019-05-07T21:49:38.111Z,9.94
2019-05-07T21:51:38.049Z,10
2019-05-07T21:53:38.109Z,10
2019-05-07T21:55:38.108Z,10
2019-05-07T21:56:01.652Z,9.94
2019-05-07T21:57:38.055Z,9.88
2019-05-07T21:59:38.109Z,9.88
2019-05-07T22:01:38.089Z,9.88
2019-05-07T22:03:38.108Z,9.88
2019-05-07T22:05:38.115Z,9.81
2019-05-07T22:07:38.118Z,9.81
2019-05-07T22:09:38.175Z,9.81
2019-05-07T22:10:55.208Z,9.81
2019-05-07T22:11:38.096Z,9.75
2019-05-07T22:13:38.059Z,9.81
2019-05-07T22:15:38.111Z,9.81
2019-05-07T22:17:38.139Z,9.81
2019-05-07T22:19:38.112Z,9.75
2019-05-07T22:21:38.054Z,9.75
2019-05-07T22:23:38.100Z,9.75
2019-05-07T22:25:38.161Z,9.75
2019-05-07T22:25:54.939Z,9.69
2019-05-07T22:27:38.119Z,9.69
2019-05-07T22:29:38.086Z,9.69
2019-05-07T22:31:38.120Z,9.69
2019-05-07T22:33:38.101Z,9.69
2019-05-07T22:35:38.095Z,9.69
2019-05-07T22:37:38.096Z,9.69
2019-05-07T22:39:38.100Z,9.69
2019-05-07T22:40:55.008Z,9.63
2019-05-07T22:41:38.157Z,9.63
2019-05-07T22:43:38.164Z,9.63
2019-05-07T22:45:38.108Z,9.63
2019-05-07T22:47:38.080Z,9.63
2019-05-07T22:49:38.085Z,9.5
2019-05-07T22:51:38.090Z,9.56
2019-05-07T22:53:38.077Z,9.56
2019-05-07T22:55:38.108Z,9.56
2019-05-07T22:55:55.034Z,9.56
2019-05-07T22:57:38.075Z,9.56
2019-05-07T22:59:38.054Z,9.56
2019-05-07T23:01:38.092Z,9.56
2019-05-07T23:03:38.065Z,9.56
2019-05-07T23:05:38.112Z,9.56
2019-05-07T23:07:38.039Z,9.56
2019-05-07T23:09:38.081Z,9.5
2019-05-07T23:10:55.079Z,9.5
2019-05-07T23:11:38.071Z,9.5
2019-05-07T23:13:38.080Z,9.44
2019-05-07T23:15:38.016Z,9.44